createdAt,value
2023-05-09T00:00:54.277Z,4.90
2023-05-09T00:03:21.364Z,3.77
2023-05-09T00:05:48.545Z,4.50
2023-05-09T00:08:15.497Z,4.30
2023-05-09T00:10:42.700Z,4.17
2023-05-09T00:13:09.661Z,4.20
2023-05-09T00:15:36.818Z,3.90
2023-05-09T00:18:03.987Z,4.40
2023-05-09T00:20:31.069Z,3.70
2023-05-09T00:22:58.146Z,3.60
2023-05-09T00:25:25.191Z,3.60
2023-05-09T00:27:52.019Z,3.40
2023-05-09T00:30:19.367Z,3.40
2023-05-09T00:32:46.338Z,4.37
2023-05-09T00:35:13.580Z,4.03
2023-05-09T00:37:40.955Z,4.43
2023-05-09T00:40:09.471Z,3.77
2023-05-09T00:42:36.486Z,4.60
2023-05-09T00:45:03.539Z,3.80
2023-05-09T00:47:30.499Z,3.70
2023-05-09T00:49:58.452Z,3.53
2023-05-09T00:52:26.852Z,3.27
2023-05-09T00:54:55.084Z,3.90
2023-05-09T00:57:23.097Z,4.50
2023-05-09T00:59:50.630Z,3.60
2023-05-09T01:02:18.291Z,3.87
2023-05-09T01:04:48.728Z,3.47
2023-05-09T01:07:41.769Z,3.90
2023-05-09T01:10:22.078Z,3.93
2023-05-09T01:13:04.454Z,3.47
2023-05-09T01:15:39.656Z,3.27
2023-05-09T01:18:09.260Z,3.60
2023-05-09T01:20:45.846Z,4.47
2023-05-09T01:23:13.434Z,3.40
2023-05-09T01:26:03.944Z,3.70
2023-05-09T01:28:44.937Z,4.60
2023-05-09T01:31:12.692Z,4.07
2023-05-09T01:33:42.833Z,3.80
2023-05-09T01:36:15.330Z,4.20
2023-05-09T01:38:45.130Z,4.33
2023-05-09T01:41:15.846Z,3.70
2023-05-09T01:43:45.866Z,3.57
2023-05-09T01:46:15.006Z,4.03
2023-05-09T01:48:42.828Z,4.70
2023-05-09T01:51:11.443Z,3.73
2023-05-09T01:53:40.622Z,4.43
2023-05-09T01:56:09.629Z,3.73
2023-05-09T01:58:38.586Z,4.30
2023-05-09T02:01:06.698Z,4.07
2023-05-09T02:03:34.918Z,4.23
2023-05-09T02:06:04.382Z,3.97
2023-05-09T02:08:32.277Z,3.60
2023-05-09T02:11:00.560Z,4.07
2023-05-09T02:13:27.530Z,3.97
2023-05-09T02:15:55.409Z,4.07
2023-05-09T02:18:22.265Z,4.20
2023-05-09T02:20:49.255Z,4.17
2023-05-09T02:23:18.031Z,5.37
2023-05-09T02:25:46.645Z,3.30
2023-05-09T02:28:14.256Z,4.27
2023-05-09T02:30:44.458Z,4.67
2023-05-09T02:33:13.898Z,4.27
2023-05-09T02:35:44.025Z,4.00
2023-05-09T02:38:13.467Z,3.30
2023-05-09T02:40:43.026Z,4.33
2023-05-09T02:43:10.216Z,4.30
2023-05-09T02:45:37.360Z,4.40
2023-05-09T02:48:06.848Z,4.20
2023-05-09T02:50:35.491Z,3.90
2023-05-09T02:53:02.390Z,4.67
2023-05-09T02:55:29.258Z,4.20
2023-05-09T02:58:09.360Z,4.27
2023-05-09T03:00:40.137Z,5.70
2023-05-09T03:03:07.917Z,4.40
2023-05-09T03:05:34.991Z,4.87
2023-05-09T03:08:01.913Z,4.40
2023-05-09T03:10:28.909Z,3.23
2023-05-09T03:12:56.007Z,5.17
2023-05-09T03:15:23.235Z,5.00
2023-05-09T03:17:50.273Z,4.33
2023-05-09T03:20:17.478Z,4.97
2023-05-09T03:22:44.334Z,4.00
2023-05-09T03:25:12.555Z,4.20
2023-05-09T03:27:39.701Z,4.97
2023-05-09T03:30:10.223Z,4.90
2023-05-09T03:32:37.322Z,3.83
2023-05-09T03:35:04.532Z,4.03
2023-05-09T03:37:32.599Z,4.97
2023-05-09T03:39:59.483Z,4.27
2023-05-09T03:42:27.045Z,4.50
2023-05-09T03:44:58.203Z,4.00
2023-05-09T03:47:25.105Z,4.40
2023-05-09T03:49:53.683Z,4.40
2023-05-09T03:52:22.825Z,4.60
2023-05-09T03:54:49.726Z,4.33
2023-05-09T03:57:16.979Z,4.80
2023-05-09T03:59:45.815Z,5.00
2023-05-09T04:02:14.212Z,4.43
2023-05-09T04:04:41.217Z,4.70
2023-05-09T04:07:08.452Z,5.10
2023-05-09T04:09:35.519Z,4.90
2023-05-09T04:12:02.318Z,4.93
2023-05-09T04:14:29.260Z,4.70
2023-05-09T04:16:56.272Z,4.77
2023-05-09T04:19:23.086Z,4.97
2023-05-09T04:21:49.937Z,5.67
2023-05-09T04:24:16.795Z,4.73
2023-05-09T04:26:47.011Z,5.67
2023-05-09T04:29:17.168Z,4.50
2023-05-09T04:31:49.706Z,4.77
2023-05-09T04:34:16.803Z,5.87
2023-05-09T04:36:43.839Z,5.17
2023-05-09T04:39:11.034Z,5.17
2023-05-09T04:41:44.631Z,5.10
2023-05-09T04:44:11.793Z,4.77
2023-05-09T04:46:38.863Z,5.23
2023-05-09T04:49:06.475Z,5.80
2023-05-09T04:51:33.609Z,5.10
2023-05-09T04:54:00.724Z,5.20
2023-05-09T04:56:32.552Z,4.53
2023-05-09T04:59:01.052Z,4.40
2023-05-09T05:01:29.023Z,6.17
2023-05-09T05:03:56.385Z,5.00
2023-05-09T05:06:23.302Z,5.53
2023-05-09T05:08:50.422Z,5.13
2023-05-09T05:11:18.222Z,4.60
2023-05-09T05:13:45.685Z,5.43
2023-05-09T05:16:12.677Z,5.30
2023-05-09T05:18:39.817Z,5.00
2023-05-09T05:21:06.860Z,4.80
2023-05-09T05:23:33.719Z,4.83
2023-05-09T05:26:00.652Z,4.87
2023-05-09T05:28:28.737Z,4.83
2023-05-09T05:30:55.729Z,5.80
2023-05-09T05:33:22.566Z,5.03
2023-05-09T05:35:50.058Z,4.63
2023-05-09T05:38:16.901Z,4.73
2023-05-09T05:40:48.408Z,4.83
2023-05-09T05:43:15.749Z,5.77
2023-05-09T05:45:42.857Z,4.97
2023-05-09T05:48:14.801Z,5.10
2023-05-09T05:50:41.739Z,4.23
2023-05-09T05:53:09.345Z,5.07
2023-05-09T05:55:36.632Z,5.53
2023-05-09T05:58:05.445Z,5.27
2023-05-09T06:00:32.410Z,6.50
2023-05-09T06:03:04.282Z,6.13
2023-05-09T06:05:50.061Z,5.70
2023-05-09T06:08:17.467Z,5.10
2023-05-09T06:10:44.637Z,4.40
2023-05-09T06:13:11.615Z,5.40
2023-05-09T06:15:42.537Z,5.10
2023-05-09T06:18:10.280Z,4.60
2023-05-09T06:20:37.215Z,4.20
2023-05-09T06:23:04.076Z,4.57
2023-05-09T06:25:30.944Z,4.40
2023-05-09T06:27:57.895Z,4.10
2023-05-09T06:30:26.805Z,4.80
2023-05-09T06:32:55.258Z,4.83
2023-05-09T06:35:22.458Z,4.60
2023-05-09T06:37:49.591Z,5.00
2023-05-09T06:40:17.258Z,6.10
2023-05-09T06:42:44.969Z,5.63
2023-05-09T06:45:12.290Z,5.07
2023-05-09T06:47:39.395Z,4.63
2023-05-09T06:50:07.031Z,4.90
2023-05-09T06:52:33.944Z,4.67
2023-05-09T06:55:00.725Z,4.70
2023-05-09T06:57:27.726Z,5.20
2023-05-09T06:59:54.602Z,4.27
2023-05-09T07:02:21.442Z,4.23
2023-05-09T07:04:48.520Z,4.63
2023-05-09T07:07:16.466Z,3.90
2023-05-09T07:09:43.297Z,5.03
2023-05-09T07:12:10.195Z,4.10
2023-05-09T07:14:37.022Z,4.13
2023-05-09T07:17:21.116Z,4.23
2023-05-09T07:19:49.427Z,4.37
2023-05-09T07:22:16.304Z,3.73
2023-05-09T07:24:44.711Z,4.53
2023-05-09T07:27:11.581Z,4.30
2023-05-09T07:29:38.463Z,4.53
2023-05-09T07:32:05.563Z,3.83
2023-05-09T07:34:32.464Z,4.33
2023-05-09T07:36:59.399Z,3.73
2023-05-09T07:39:26.308Z,3.10
2023-05-09T07:41:53.097Z,3.27
2023-05-09T07:44:19.927Z,4.20
2023-05-09T07:46:46.968Z,3.57
2023-05-09T07:49:13.820Z,3.80
2023-05-09T07:51:41.568Z,3.93
2023-05-09T07:54:10.299Z,3.97
2023-05-09T07:56:37.236Z,3.87
2023-05-09T07:59:04.129Z,3.57
2023-05-09T08:01:31.134Z,3.40
2023-05-09T08:03:58.109Z,3.10
2023-05-09T08:06:26.466Z,3.63
2023-05-09T08:08:53.291Z,3.60
2023-05-09T08:11:20.165Z,4.13
2023-05-09T08:13:48.355Z,3.27
2023-05-09T08:16:17.601Z,3.27
2023-05-09T08:18:44.973Z,3.90
2023-05-09T08:21:12.126Z,3.17
2023-05-09T08:23:39.019Z,3.20
2023-05-09T08:26:06.155Z,2.83
2023-05-09T08:28:33.028Z,3.40
2023-05-09T08:30:59.916Z,3.13
2023-05-09T08:33:26.805Z,3.23
2023-05-09T08:35:54.129Z,2.70
2023-05-09T08:38:21.272Z,3.20
2023-05-09T08:40:49.676Z,3.20
2023-05-09T08:43:19.428Z,2.80
2023-05-09T08:45:48.481Z,2.87
2023-05-09T08:48:19.265Z,2.77
2023-05-09T08:50:46.149Z,2.47
2023-05-09T08:53:13.913Z,3.07
2023-05-09T08:55:40.934Z,3.03
2023-05-09T08:58:08.856Z,3.50
2023-05-09T09:00:38.398Z,2.60
2023-05-09T09:03:07.751Z,3.30
2023-05-09T09:05:42.166Z,2.70
2023-05-09T09:08:10.356Z,2.30
2023-05-09T09:10:41.492Z,3.20
2023-05-09T09:13:10.345Z,2.80
2023-05-09T09:15:38.825Z,2.40
2023-05-09T09:18:11.733Z,3.30
2023-05-09T09:20:45.289Z,2.73
2023-05-09T09:23:17.381Z,3.20
2023-05-09T09:25:47.322Z,3.30
2023-05-09T09:28:14.691Z,3.30
2023-05-09T09:30:45.982Z,2.63
2023-05-09T09:33:23.035Z,2.73
2023-05-09T09:35:51.290Z,3.27
2023-05-09T09:38:19.805Z,3.23
2023-05-09T09:40:52.654Z,3.23
2023-05-09T09:43:19.948Z,2.67
2023-05-09T09:45:54.152Z,2.67
2023-05-09T09:48:26.234Z,3.60
2023-05-09T09:50:57.168Z,3.17
2023-05-09T09:53:30.580Z,3.20
2023-05-09T09:55:57.644Z,2.97
2023-05-09T09:58:25.741Z,2.70
2023-05-09T10:01:09.375Z,3.23
2023-05-09T10:03:38.052Z,2.90
2023-05-09T10:06:05.526Z,3.33
2023-05-09T10:08:32.484Z,2.83
2023-05-09T10:11:00.141Z,2.60
2023-05-09T10:13:28.432Z,2.80
2023-05-09T10:15:58.462Z,2.50
2023-05-09T10:18:28.880Z,2.70
2023-05-09T10:20:57.403Z,3.20
2023-05-09T10:23:25.627Z,3.07
2023-05-09T10:26:05.209Z,2.73
2023-05-09T10:28:35.326Z,2.57
2023-05-09T10:31:22.631Z,3.10
2023-05-09T10:33:51.192Z,2.33
2023-05-09T10:36:22.849Z,3.03
2023-05-09T10:38:50.994Z,2.67
2023-05-09T10:41:19.076Z,2.70
2023-05-09T10:43:46.272Z,2.80
2023-05-09T10:46:14.200Z,2.77
2023-05-09T10:48:42.351Z,2.77
2023-05-09T10:51:09.820Z,2.93
2023-05-09T10:53:50.234Z,3.13
2023-05-09T10:56:23.193Z,2.57
2023-05-09T10:58:50.219Z,2.63
2023-05-09T11:01:29.645Z,2.73
2023-05-09T11:03:58.227Z,2.33
2023-05-09T11:06:45.425Z,3.73
2023-05-09T11:09:33.085Z,2.50
2023-05-09T11:12:06.482Z,2.37
2023-05-09T11:14:38.338Z,2.50
2023-05-09T11:17:26.510Z,3.63
2023-05-09T11:19:53.498Z,2.53
2023-05-09T11:22:21.425Z,2.70
2023-05-09T11:24:54.258Z,2.70
2023-05-09T11:27:26.776Z,2.50
2023-05-09T11:29:56.424Z,2.90
2023-05-09T11:32:28.904Z,2.67
2023-05-09T11:35:16.011Z,2.60
2023-05-09T11:38:06.383Z,2.70
2023-05-09T11:40:34.968Z,2.50
2023-05-09T11:43:02.491Z,3.10
2023-05-09T11:45:32.144Z,2.83
2023-05-09T11:48:00.781Z,2.90
2023-05-09T11:50:27.803Z,2.53
2023-05-09T11:52:54.900Z,2.43
2023-05-09T11:55:23.132Z,2.70
2023-05-09T11:57:54.461Z,2.27
2023-05-09T12:00:23.689Z,2.90
2023-05-09T12:02:51.666Z,2.40
2023-05-09T12:05:20.755Z,2.67
2023-05-09T12:07:48.595Z,2.57
2023-05-09T12:10:17.327Z,2.67
2023-05-09T12:12:49.280Z,3.03
2023-05-09T12:15:17.346Z,3.37
2023-05-09T12:17:45.673Z,3.10
2023-05-09T12:20:13.122Z,2.70
2023-05-09T12:22:43.309Z,2.67
2023-05-09T12:25:12.220Z,2.93
2023-05-09T12:27:40.942Z,2.53
2023-05-09T12:30:10.611Z,2.60
2023-05-09T12:32:40.581Z,2.80
2023-05-09T12:35:10.758Z,3.00
2023-05-09T12:37:37.980Z,2.67
2023-05-09T12:40:06.409Z,2.50
2023-05-09T12:42:34.664Z,2.70
2023-05-09T12:45:07.843Z,3.13
2023-05-09T12:47:34.847Z,2.60
2023-05-09T12:50:03.412Z,3.03
2023-05-09T12:53:01.354Z,3.10
2023-05-09T12:55:30.586Z,2.70
2023-05-09T12:58:02.614Z,3.10
2023-05-09T13:00:42.551Z,3.20
2023-05-09T13:03:26.188Z,2.03
2023-05-09T13:06:04.955Z,2.63
2023-05-09T13:08:32.511Z,2.60
2023-05-09T13:11:11.934Z,2.77
2023-05-09T13:13:43.088Z,2.50
2023-05-09T13:16:11.136Z,2.83
2023-05-09T13:18:39.066Z,3.40
2023-05-09T13:21:06.081Z,2.57
2023-05-09T13:23:33.023Z,2.60
2023-05-09T13:25:59.976Z,2.70
2023-05-09T13:28:26.855Z,2.70
2023-05-09T13:30:53.810Z,3.00
2023-05-09T13:35:51.310Z,3.03
2023-05-09T13:38:18.182Z,2.80
2023-05-09T13:40:45.031Z,2.07
2023-05-09T13:43:12.062Z,2.33
2023-05-09T13:45:38.954Z,2.90
2023-05-09T13:48:06.125Z,3.20
2023-05-09T13:50:32.997Z,3.37
2023-05-09T13:53:00.029Z,2.20
2023-05-09T13:55:27.969Z,2.37
2023-05-09T13:57:55.139Z,2.77
2023-05-09T14:00:22.515Z,2.10
2023-05-09T14:02:49.415Z,2.80
2023-05-09T14:05:17.111Z,2.30
2023-05-09T14:07:44.280Z,2.30
2023-05-09T14:10:12.626Z,2.87
2023-05-09T14:12:44.559Z,2.97
2023-05-09T14:15:11.704Z,2.83
2023-05-09T14:17:38.866Z,2.37
2023-05-09T14:20:06.917Z,2.73
2023-05-09T14:22:33.839Z,2.40
2023-05-09T14:25:00.767Z,2.30
2023-05-09T14:27:27.797Z,2.93
2023-05-09T14:29:54.696Z,2.77
2023-05-09T14:32:21.703Z,2.90
2023-05-09T14:34:49.828Z,2.67
2023-05-09T14:37:17.148Z,3.07
2023-05-09T14:39:45.342Z,2.40
2023-05-09T14:42:14.313Z,2.70
2023-05-09T14:44:41.987Z,3.63
2023-05-09T14:47:10.007Z,2.77
2023-05-09T14:49:39.953Z,2.60
2023-05-09T14:52:06.928Z,2.33
2023-05-09T14:54:33.970Z,2.47
2023-05-09T14:57:05.638Z,2.47
2023-05-09T14:59:34.718Z,3.03
2023-05-09T15:02:03.030Z,2.90
2023-05-09T15:04:31.440Z,2.60
2023-05-09T15:06:59.256Z,2.90
2023-05-09T15:09:27.020Z,2.90
2023-05-09T15:11:55.118Z,2.80
2023-05-09T15:14:22.257Z,2.63
2023-05-09T15:16:49.263Z,2.20
2023-05-09T15:19:16.149Z,2.63
2023-05-09T15:21:43.070Z,3.40
2023-05-09T15:24:10.036Z,3.07
2023-05-09T15:26:36.927Z,3.20
2023-05-09T15:29:03.878Z,2.67
2023-05-09T15:31:33.138Z,2.90
2023-05-09T15:34:03.059Z,3.17
2023-05-09T15:36:30.309Z,2.90
2023-05-09T15:38:57.299Z,3.50
2023-05-09T15:41:24.472Z,2.50
2023-05-09T15:43:51.976Z,2.70
2023-05-09T15:46:19.077Z,2.90
2023-05-09T15:48:46.204Z,2.20
2023-05-09T15:51:14.078Z,3.23
2023-05-09T15:53:41.105Z,3.20
2023-05-09T15:56:08.737Z,5.70
2023-05-09T15:58:36.195Z,2.93
2023-05-09T16:01:08.233Z,2.73
2023-05-09T16:03:35.357Z,2.57
2023-05-09T16:06:02.525Z,2.60
2023-05-09T16:08:29.488Z,2.30
2023-05-09T16:10:56.403Z,2.40
2023-05-09T16:13:24.057Z,2.80
2023-05-09T16:15:51.330Z,2.70
2023-05-09T16:18:18.927Z,3.30
2023-05-09T16:20:45.925Z,3.80
2023-05-09T16:23:13.318Z,2.40
2023-05-09T16:25:40.185Z,3.13
2023-05-09T16:28:07.432Z,2.60
2023-05-09T16:30:34.685Z,3.17
2023-05-09T16:33:01.592Z,2.80
2023-05-09T16:35:29.082Z,3.20
2023-05-09T16:37:55.968Z,2.60
2023-05-09T16:40:22.968Z,3.20
2023-05-09T16:42:49.900Z,2.87
2023-05-09T16:45:16.744Z,3.27
2023-05-09T16:47:43.695Z,3.53
2023-05-09T16:50:11.111Z,3.63
2023-05-09T16:52:38.094Z,3.27
2023-05-09T16:55:25.649Z,2.93
2023-05-09T16:57:52.620Z,3.37
2023-05-09T17:00:20.067Z,2.83
2023-05-09T17:02:47.040Z,3.80
2023-05-09T17:05:13.907Z,3.00
2023-05-09T17:07:40.786Z,2.90
2023-05-09T17:10:08.172Z,2.73
2023-05-09T17:12:35.397Z,3.20
2023-05-09T17:15:02.373Z,3.20
2023-05-09T17:17:29.376Z,2.57
2023-05-09T17:19:56.344Z,3.40
2023-05-09T17:22:23.600Z,3.30
2023-05-09T17:24:50.530Z,3.63
2023-05-09T17:27:17.484Z,3.10
2023-05-09T17:29:44.344Z,3.00
2023-05-09T17:32:11.386Z,3.43
2023-05-09T17:34:39.236Z,3.60
2023-05-09T17:37:07.550Z,3.10
2023-05-09T17:39:34.548Z,3.00
2023-05-09T17:42:02.178Z,3.33
2023-05-09T17:44:29.104Z,3.73
2023-05-09T17:46:59.272Z,3.77
2023-05-09T17:49:26.165Z,3.40
2023-05-09T17:51:53.138Z,3.60
2023-05-09T17:54:20.149Z,3.10
2023-05-09T17:56:51.140Z,3.13
2023-05-09T17:59:18.765Z,2.97
2023-05-09T18:01:45.686Z,2.90
2023-05-09T18:04:13.323Z,3.30
2023-05-09T18:06:40.315Z,3.30
2023-05-09T18:09:07.396Z,3.17
2023-05-09T18:11:34.737Z,3.90
2023-05-09T18:14:01.767Z,3.57
2023-05-09T18:16:28.666Z,3.87
2023-05-09T18:18:55.799Z,3.30
2023-05-09T18:21:22.742Z,3.60
2023-05-09T18:23:49.604Z,3.00
2023-05-09T18:26:17.180Z,3.20
2023-05-09T18:28:44.668Z,3.43
2023-05-09T18:31:12.502Z,3.17
2023-05-09T18:33:39.788Z,3.40
2023-05-09T18:36:11.368Z,3.50
2023-05-09T18:38:39.583Z,3.43
2023-05-09T18:41:10.582Z,3.23
2023-05-09T18:43:39.053Z,3.60
2023-05-09T18:46:06.071Z,3.60
2023-05-09T18:48:33.675Z,3.30
2023-05-09T18:51:00.655Z,3.43
2023-05-09T18:53:29.016Z,3.67
2023-05-09T18:55:57.059Z,3.03
2023-05-09T18:58:24.944Z,3.30
2023-05-09T19:00:53.256Z,3.70
2023-05-09T19:03:21.034Z,3.47
2023-05-09T19:05:47.925Z,3.87
2023-05-09T19:08:14.913Z,3.40
2023-05-09T19:10:41.841Z,3.27
2023-05-09T19:13:09.050Z,3.07
2023-05-09T19:15:35.940Z,3.33
2023-05-09T19:18:03.643Z,2.93
2023-05-09T19:20:31.335Z,3.33
2023-05-09T19:22:58.648Z,3.40
2023-05-09T19:25:26.767Z,3.50
2023-05-09T19:27:53.692Z,3.50
2023-05-09T19:30:21.112Z,3.37
2023-05-09T19:32:48.153Z,3.53
2023-05-09T19:35:15.115Z,3.23
2023-05-09T19:37:42.024Z,3.40
2023-05-09T19:40:09.273Z,3.80
2023-05-09T19:42:36.632Z,3.23
2023-05-09T19:45:04.823Z,3.23
2023-05-09T19:47:31.846Z,3.60
2023-05-09T19:49:59.168Z,3.43
2023-05-09T19:52:26.102Z,3.60
2023-05-09T19:54:52.996Z,3.60
2023-05-09T19:57:20.842Z,3.47
2023-05-09T19:59:47.689Z,3.33
2023-05-09T20:02:14.676Z,3.43
2023-05-09T20:04:46.718Z,3.73
2023-05-09T20:07:13.661Z,3.40
2023-05-09T20:09:40.548Z,3.50
2023-05-09T20:12:07.632Z,3.80
2023-05-09T20:14:34.511Z,3.10
2023-05-09T20:17:01.749Z,3.70
2023-05-09T20:19:28.607Z,4.17
2023-05-09T20:21:55.500Z,3.33
2023-05-09T20:24:22.470Z,4.13
2023-05-09T20:26:49.411Z,3.70
2023-05-09T20:29:16.331Z,4.00
2023-05-09T20:31:43.311Z,4.00
2023-05-09T20:34:16.263Z,3.87
2023-05-09T20:36:43.470Z,3.70
2023-05-09T20:39:11.835Z,4.67
2023-05-09T20:41:38.995Z,4.83
2023-05-09T20:44:05.815Z,4.57
2023-05-09T20:46:32.723Z,4.20
2023-05-09T20:48:59.572Z,3.90
2023-05-09T20:51:26.734Z,4.03
2023-05-09T20:53:53.675Z,4.60
2023-05-09T20:56:21.699Z,4.27
2023-05-09T20:58:48.577Z,4.30
2023-05-09T21:01:15.594Z,3.80
2023-05-09T21:03:42.605Z,4.70
2023-05-09T21:06:09.538Z,3.70
2023-05-09T21:08:36.418Z,4.50
2023-05-09T21:11:03.393Z,4.93
2023-05-09T21:13:30.326Z,3.80
2023-05-09T21:15:57.773Z,4.20
2023-05-09T21:18:25.139Z,4.10
2023-05-09T21:20:52.010Z,3.70
2023-05-09T21:23:18.883Z,4.20
2023-05-09T21:25:45.881Z,3.87
2023-05-09T21:28:14.650Z,4.20
2023-05-09T21:30:41.618Z,3.40
2023-05-09T21:33:08.613Z,3.77
2023-05-09T21:35:35.510Z,3.80
2023-05-09T21:38:02.323Z,3.60
2023-05-09T21:40:29.124Z,3.63
2023-05-09T21:42:56.004Z,3.40
2023-05-09T21:45:22.995Z,4.03
2023-05-09T21:47:49.966Z,4.37
2023-05-09T21:50:17.179Z,4.13
2023-05-09T21:52:44.243Z,4.33
2023-05-09T21:55:11.151Z,3.83
2023-05-09T21:57:38.022Z,4.07
2023-05-09T22:00:06.904Z,4.10
2023-05-09T22:02:43.271Z,4.43
2023-05-09T22:05:10.610Z,3.60
2023-05-09T22:07:37.634Z,3.90
2023-05-09T22:10:04.952Z,3.60
2023-05-09T22:12:31.982Z,3.80
2023-05-09T22:14:59.329Z,3.87
2023-05-09T22:17:26.345Z,3.97
2023-05-09T22:19:53.338Z,4.07
2023-05-09T22:22:20.303Z,4.00
2023-05-09T22:24:47.162Z,4.10
2023-05-09T22:27:14.020Z,3.90
2023-05-09T22:29:40.902Z,4.13
2023-05-09T22:32:08.628Z,3.90
2023-05-09T22:34:36.035Z,4.60
2023-05-09T22:37:03.104Z,4.10
2023-05-09T22:39:31.157Z,5.03
2023-05-09T22:41:58.047Z,4.40
2023-05-09T22:44:25.058Z,3.67
2023-05-09T22:46:51.939Z,3.80
2023-05-09T22:49:22.310Z,4.70
2023-05-09T22:51:49.205Z,3.60
2023-05-09T22:54:20.702Z,4.40
2023-05-09T22:56:47.681Z,4.00
2023-05-09T22:59:14.574Z,4.00
2023-05-09T23:01:41.425Z,4.27
2023-05-09T23:04:08.601Z,4.63
2023-05-09T23:06:35.439Z,4.20
2023-05-09T23:09:02.232Z,5.60
2023-05-09T23:11:29.210Z,4.53
2023-05-09T23:13:56.005Z,4.30
2023-05-09T23:16:23.314Z,4.00
2023-05-09T23:18:50.282Z,4.77
2023-05-09T23:21:17.164Z,4.73
2023-05-09T23:23:44.056Z,5.00
2023-05-09T23:26:10.958Z,3.50
2023-05-09T23:28:37.764Z,5.37
2023-05-09T23:31:04.661Z,4.87
2023-05-09T23:33:31.702Z,3.70
2023-05-09T23:35:58.613Z,4.60
2023-05-09T23:38:25.567Z,3.50
2023-05-09T23:40:54.242Z,5.00
2023-05-09T23:43:21.087Z,3.80
2023-05-09T23:45:47.893Z,4.10
2023-05-09T23:48:14.736Z,8.60
2023-05-09T23:50:41.809Z,5.80
2023-05-09T23:53:08.747Z,5.70
2023-05-09T23:55:35.801Z,4.17
2023-05-09T23:58:02.714Z,4.43
